createdAt,value
2023-02-11T00:00:34.212Z,6.47
2023-02-11T00:03:01.003Z,6.37
2023-02-11T00:05:27.699Z,6.53
2023-02-11T00:07:54.324Z,5.70
2023-02-11T00:10:20.947Z,6.17
2023-02-11T00:12:47.543Z,5.53
2023-02-11T00:15:14.138Z,5.93
2023-02-11T00:17:40.724Z,5.60
2023-02-11T00:20:08.354Z,6.00
2023-02-11T00:22:34.987Z,7.07
2023-02-11T00:25:01.664Z,6.27
2023-02-11T00:27:28.242Z,7.03
2023-02-11T00:29:54.918Z,7.00
2023-02-11T00:32:21.515Z,7.10
2023-02-11T00:34:48.195Z,7.20
2023-02-11T00:37:14.836Z,7.43
2023-02-11T00:39:41.502Z,8.27
2023-02-11T00:42:08.089Z,8.57
2023-02-11T00:44:34.694Z,9.43
2023-02-11T00:47:01.276Z,9.27
2023-02-11T00:49:27.907Z,9.10
2023-02-11T00:51:54.497Z,10.77
2023-02-11T00:54:21.184Z,9.10
2023-02-11T00:56:47.782Z,10.33
2023-02-11T00:59:14.377Z,11.17
2023-02-11T01:01:41.206Z,9.70
2023-02-11T01:04:07.889Z,9.73
2023-02-11T01:06:34.475Z,11.17
2023-02-11T01:09:01.094Z,10.93
2023-02-11T01:11:27.705Z,12.63
2023-02-11T01:13:54.293Z,10.30
2023-02-11T01:16:21.228Z,11.33
2023-02-11T01:18:47.985Z,13.33
2023-02-11T01:21:14.931Z,11.37
2023-02-11T01:23:41.646Z,11.13
2023-02-11T01:26:08.292Z,11.50
2023-02-11T01:28:35.024Z,11.83
2023-02-11T01:31:02.118Z,10.80
2023-02-11T01:33:28.792Z,10.70
2023-02-11T01:35:55.438Z,11.03
2023-02-11T01:38:25.775Z,12.13
2023-02-11T01:40:57.107Z,12.77
2023-02-11T01:43:24.072Z,12.30
2023-02-11T01:45:56.424Z,11.43
2023-02-11T01:48:26.860Z,10.53
2023-02-11T01:50:55.362Z,10.20
2023-02-11T01:53:40.321Z,9.87
2023-02-11T01:56:25.882Z,9.03
2023-02-11T01:58:53.277Z,9.23
2023-02-11T02:01:22.559Z,10.30
2023-02-11T02:03:49.193Z,10.63
2023-02-11T02:06:18.639Z,9.93
2023-02-11T02:09:05.959Z,10.03
2023-02-11T02:11:32.543Z,8.93
2023-02-11T02:13:59.159Z,10.60
2023-02-11T02:16:30.550Z,9.57
2023-02-11T02:19:15.927Z,10.00
2023-02-11T02:22:00.530Z,10.03
2023-02-11T02:24:39.690Z,11.50
2023-02-11T02:27:21.104Z,9.13
2023-02-11T02:29:55.404Z,9.37
2023-02-11T02:33:16.675Z,8.23
2023-02-11T02:35:55.767Z,8.13
2023-02-11T02:38:25.445Z,8.47
2023-02-11T02:40:58.988Z,8.90
2023-02-11T02:43:26.501Z,8.87
2023-02-11T02:45:53.433Z,10.47
2023-02-11T02:48:38.113Z,7.93
2023-02-11T02:51:25.228Z,10.30
2023-02-11T02:54:02.240Z,10.00
2023-02-11T02:56:50.041Z,10.90
2023-02-11T02:59:41.445Z,11.57
2023-02-11T03:02:27.117Z,13.07
2023-02-11T03:05:03.917Z,11.50
2023-02-11T03:07:51.337Z,10.90
2023-02-11T03:10:21.658Z,12.03
2023-02-11T03:12:48.299Z,14.90
2023-02-11T03:15:15.305Z,12.00
2023-02-11T03:17:42.920Z,12.30
2023-02-11T03:20:10.648Z,12.10
2023-02-11T03:22:45.444Z,15.37
2023-02-11T03:25:12.071Z,13.43
2023-02-11T03:27:52.578Z,12.57
2023-02-11T03:30:37.064Z,13.07
2023-02-11T03:33:12.415Z,12.03
2023-02-11T03:35:45.880Z,12.80
2023-02-11T03:38:15.937Z,12.20
2023-02-11T03:40:42.567Z,12.47
2023-02-11T03:43:11.296Z,16.87
2023-02-11T03:45:37.925Z,14.87
2023-02-11T03:48:08.476Z,13.83
2023-02-11T03:50:35.070Z,13.90
2023-02-11T03:53:02.057Z,13.83
2023-02-11T03:55:28.769Z,15.43
2023-02-11T03:57:55.500Z,14.13
2023-02-11T04:00:29.014Z,11.60
2023-02-11T04:02:55.642Z,11.90
2023-02-11T04:05:22.258Z,12.43
2023-02-11T04:07:48.858Z,14.17
2023-02-11T04:10:15.582Z,12.90
2023-02-11T04:12:42.171Z,13.07
2023-02-11T04:15:09.008Z,14.00
2023-02-11T04:17:35.722Z,11.07
2023-02-11T04:20:02.502Z,10.93
2023-02-11T04:22:29.627Z,12.20
2023-02-11T04:24:56.271Z,11.67
2023-02-11T04:27:22.991Z,13.67
2023-02-11T04:29:49.830Z,11.30
2023-02-11T04:32:16.438Z,12.57
2023-02-11T04:34:43.062Z,12.27
2023-02-11T04:37:09.667Z,12.00
2023-02-11T04:39:36.403Z,10.30
2023-02-11T04:42:03.009Z,10.77
2023-02-11T04:44:29.690Z,10.97
2023-02-11T04:46:56.274Z,8.37
2023-02-11T04:49:22.984Z,8.50
2023-02-11T04:51:49.819Z,10.33
2023-02-11T04:54:16.828Z,9.57
2023-02-11T04:56:43.454Z,9.50
2023-02-11T04:59:10.100Z,9.00
2023-02-11T05:01:36.759Z,8.87
2023-02-11T05:04:03.469Z,9.47
2023-02-11T05:06:30.106Z,11.23
2023-02-11T05:08:56.712Z,9.57
2023-02-11T05:11:23.998Z,7.97
2023-02-11T05:13:50.730Z,7.83
2023-02-11T05:16:17.649Z,8.43
2023-02-11T05:18:44.468Z,7.47
2023-02-11T05:21:13.020Z,7.10
2023-02-11T05:23:39.987Z,7.10
2023-02-11T05:26:06.718Z,6.30
2023-02-11T05:28:33.616Z,5.97
2023-02-11T05:31:00.338Z,5.97
2023-02-11T05:33:27.075Z,6.33
2023-02-11T05:36:01.280Z,6.40
2023-02-11T05:38:27.928Z,5.87
2023-02-11T05:40:54.645Z,5.30
2023-02-11T05:43:21.336Z,5.50
2023-02-11T05:45:48.036Z,5.23
2023-02-11T05:48:14.837Z,5.53
2023-02-11T05:50:41.535Z,5.90
2023-02-11T05:53:08.119Z,5.20
2023-02-11T05:55:34.900Z,5.27
2023-02-11T05:58:01.576Z,4.20
2023-02-11T06:00:28.194Z,4.20
2023-02-11T06:02:54.826Z,4.30
2023-02-11T06:05:21.517Z,4.47
2023-02-11T06:07:48.128Z,3.90
2023-02-11T06:10:14.825Z,3.67
2023-02-11T06:12:41.441Z,3.70
2023-02-11T06:15:08.148Z,3.40
2023-02-11T06:17:36.478Z,3.40
2023-02-11T06:20:04.152Z,3.53
2023-02-11T06:22:30.775Z,3.60
2023-02-11T06:25:01.806Z,3.70
2023-02-11T06:27:28.841Z,3.20
2023-02-11T06:29:55.468Z,3.70
2023-02-11T06:32:42.369Z,3.47
2023-02-11T06:35:11.445Z,3.60
2023-02-11T06:37:38.608Z,3.93
2023-02-11T06:40:05.649Z,4.07
2023-02-11T06:42:32.340Z,3.93
2023-02-11T06:44:58.953Z,4.20
2023-02-11T06:47:25.580Z,4.23
2023-02-11T06:49:52.215Z,3.80
2023-02-11T06:52:18.801Z,4.90
2023-02-11T06:54:45.412Z,4.47
2023-02-11T06:57:11.995Z,4.33
2023-02-11T06:59:38.637Z,5.27
2023-02-11T07:02:05.328Z,4.60
2023-02-11T07:04:32.032Z,4.53
2023-02-11T07:06:58.631Z,4.47
2023-02-11T07:09:25.253Z,4.67
2023-02-11T07:11:51.851Z,4.43
2023-02-11T07:14:18.481Z,5.07
2023-02-11T07:16:45.095Z,4.57
2023-02-11T07:19:11.692Z,4.77
2023-02-11T07:21:38.310Z,4.37
2023-02-11T07:24:11.072Z,3.90
2023-02-11T07:26:38.111Z,4.53
2023-02-11T07:29:04.738Z,4.57
2023-02-11T07:31:31.607Z,4.07
2023-02-11T07:34:00.910Z,4.83
2023-02-11T07:36:28.346Z,3.90
2023-02-11T07:38:54.989Z,4.60
2023-02-11T07:41:22.706Z,4.40
2023-02-11T07:43:49.332Z,4.17
2023-02-11T07:46:18.170Z,4.30
2023-02-11T07:48:44.792Z,4.13
2023-02-11T07:51:30.193Z,4.27
2023-02-11T07:53:57.975Z,3.77
2023-02-11T07:56:24.948Z,3.77
2023-02-11T07:58:51.659Z,3.23
2023-02-11T08:01:22.493Z,3.83
2023-02-11T08:03:49.220Z,3.60
2023-02-11T08:06:16.744Z,3.37
2023-02-11T08:08:43.629Z,3.40
2023-02-11T08:11:15.239Z,3.53
2023-02-11T08:13:42.007Z,2.67
2023-02-11T08:16:08.935Z,3.10
2023-02-11T08:18:35.665Z,3.00
2023-02-11T08:21:09.029Z,3.10
2023-02-11T08:23:39.657Z,3.20
2023-02-11T08:26:07.621Z,3.00
2023-02-11T08:28:38.619Z,3.13
2023-02-11T08:31:12.747Z,3.10
2023-02-11T08:33:40.883Z,2.97
2023-02-11T08:36:11.733Z,2.90
2023-02-11T08:38:38.396Z,2.90
2023-02-11T08:41:05.075Z,2.67
2023-02-11T08:43:32.816Z,2.60
2023-02-11T08:46:02.011Z,2.80
2023-02-11T08:48:29.107Z,2.90
2023-02-11T08:50:56.314Z,2.73
2023-02-11T08:53:22.959Z,2.77
2023-02-11T08:55:51.044Z,2.67
2023-02-11T08:58:19.180Z,3.50
2023-02-11T09:00:46.281Z,3.00
2023-02-11T09:03:13.579Z,2.83
2023-02-11T09:05:44.001Z,3.13
2023-02-11T09:08:10.726Z,2.60
2023-02-11T09:10:37.425Z,2.53
2023-02-11T09:13:04.018Z,2.70
2023-02-11T09:15:30.679Z,3.00
2023-02-11T09:17:57.346Z,3.10
2023-02-11T09:20:24.489Z,2.97
2023-02-11T09:22:51.084Z,3.80
2023-02-11T09:25:17.732Z,3.57
2023-02-11T09:27:44.357Z,3.27
2023-02-11T09:30:11.467Z,3.20
2023-02-11T09:32:38.064Z,4.20
2023-02-11T09:35:05.089Z,3.80
2023-02-11T09:37:31.703Z,3.80
2023-02-11T09:39:59.093Z,3.83
2023-02-11T09:42:34.563Z,3.70
2023-02-11T09:45:01.978Z,3.60
2023-02-11T09:47:32.227Z,3.93
2023-02-11T09:50:29.312Z,26.10
2023-02-11T09:53:08.119Z,14.13
2023-02-11T09:55:37.955Z,10.67
2023-02-11T09:58:07.877Z,8.27
2023-02-11T10:00:38.339Z,8.33
2023-02-11T10:03:04.913Z,7.00
2023-02-11T10:05:39.052Z,7.37
2023-02-11T10:08:09.888Z,5.60
2023-02-11T10:11:04.132Z,4.43
2023-02-11T10:13:42.347Z,3.83
2023-02-11T10:16:35.784Z,3.60
2023-02-11T10:19:24.035Z,3.60
2023-02-11T10:22:17.519Z,3.23
2023-02-11T10:24:50.578Z,2.80
2023-02-11T10:27:19.611Z,4.47
2023-02-11T10:29:57.266Z,3.67
2023-02-11T10:32:32.378Z,3.27
2023-02-11T10:35:02.441Z,4.40
2023-02-11T10:37:29.571Z,4.10
2023-02-11T10:39:56.217Z,3.80
2023-02-11T10:42:22.942Z,3.70
2023-02-11T10:45:00.857Z,3.97
2023-02-11T10:47:30.164Z,4.00
2023-02-11T10:50:03.221Z,3.30
2023-02-11T10:52:30.642Z,3.20
2023-02-11T10:54:57.775Z,2.90
2023-02-11T10:57:30.206Z,3.50
2023-02-11T11:00:03.809Z,2.97
2023-02-11T11:02:35.243Z,2.80
2023-02-11T11:05:07.332Z,2.57
2023-02-11T11:07:34.158Z,2.70
2023-02-11T11:10:25.182Z,2.80
2023-02-11T11:12:51.796Z,2.83
2023-02-11T11:15:26.708Z,2.63
2023-02-11T11:18:22.185Z,2.80
2023-02-11T11:21:01.154Z,3.07
2023-02-11T11:23:28.372Z,2.37
2023-02-11T11:26:10.683Z,2.53
2023-02-11T11:28:41.051Z,2.30
2023-02-11T11:31:30.444Z,2.63
2023-02-11T11:33:58.330Z,2.50
2023-02-11T11:36:32.405Z,2.20
2023-02-11T11:39:00.382Z,2.63
2023-02-11T11:41:31.702Z,2.53
2023-02-11T11:44:12.732Z,2.90
2023-02-11T11:46:41.132Z,2.83
2023-02-11T11:49:17.628Z,3.00
2023-02-11T11:51:47.929Z,3.20
2023-02-11T11:54:15.397Z,3.10
2023-02-11T11:56:55.127Z,3.40
2023-02-11T11:59:21.735Z,3.23
2023-02-11T12:02:07.498Z,3.13
2023-02-11T12:04:55.937Z,3.23
2023-02-11T12:07:44.888Z,3.00
2023-02-11T12:10:14.606Z,3.40
2023-02-11T12:13:08.548Z,3.50
2023-02-11T12:15:44.172Z,3.70
2023-02-11T12:18:16.621Z,3.30
2023-02-11T12:20:43.194Z,3.27
2023-02-11T12:23:21.866Z,3.03
2023-02-11T12:26:06.537Z,3.17
2023-02-11T12:28:42.006Z,3.50
2023-02-11T12:31:51.394Z,3.50
2023-02-11T12:34:40.444Z,3.43
2023-02-11T12:37:32.077Z,3.80
2023-02-11T12:40:15.258Z,3.60
2023-02-11T12:43:06.746Z,3.30
2023-02-11T12:45:56.173Z,4.33
2023-02-11T12:48:30.846Z,4.30
2023-02-11T12:51:35.146Z,4.40
2023-02-11T12:54:21.054Z,4.00
2023-02-11T12:57:11.116Z,4.43
2023-02-11T13:00:02.581Z,4.63
2023-02-11T13:02:54.559Z,4.67
2023-02-11T13:05:37.500Z,4.97
2023-02-11T13:08:15.570Z,4.13
2023-02-11T13:10:43.281Z,4.20
2023-02-11T13:13:21.212Z,3.80
2023-02-11T13:16:14.496Z,4.07
2023-02-11T13:19:03.732Z,4.60
2023-02-11T13:21:38.097Z,3.97
2023-02-11T13:24:09.761Z,4.30
2023-02-11T13:26:41.385Z,3.13
2023-02-11T13:29:16.511Z,3.20
2023-02-11T13:31:43.298Z,3.30
2023-02-11T13:34:27.039Z,2.90
2023-02-11T13:36:57.158Z,3.80
2023-02-11T13:39:23.825Z,3.50
2023-02-11T13:41:52.825Z,4.00
2023-02-11T13:44:23.891Z,3.90
2023-02-11T13:47:00.085Z,3.20
2023-02-11T13:49:32.169Z,3.27
2023-02-11T13:51:59.586Z,3.13
2023-02-11T13:54:47.461Z,3.23
2023-02-11T13:57:20.235Z,3.10
2023-02-11T13:59:54.381Z,2.80
2023-02-11T14:02:46.818Z,2.60
2023-02-11T14:05:50.768Z,2.67
2023-02-11T14:08:43.496Z,2.40
2023-02-11T14:11:44.007Z,2.60
2023-02-11T14:14:33.420Z,11.37
2023-02-11T14:17:02.963Z,6.77
2023-02-11T14:19:36.373Z,6.73
2023-02-11T14:22:40.111Z,5.13
2023-02-11T14:25:16.369Z,5.00
2023-02-11T14:27:52.137Z,3.20
2023-02-11T14:30:27.578Z,3.10
2023-02-11T14:33:16.310Z,2.60
2023-02-11T14:36:10.614Z,2.87
2023-02-11T14:38:43.018Z,2.17
2023-02-11T14:41:25.692Z,2.10
2023-02-11T14:43:53.837Z,2.17
2023-02-11T14:46:21.674Z,2.70
2023-02-11T14:48:50.158Z,2.43
2023-02-11T14:51:20.455Z,2.13
2023-02-11T14:53:49.069Z,2.30
2023-02-11T14:56:19.880Z,2.57
2023-02-11T14:58:47.984Z,2.77
2023-02-11T15:01:34.024Z,2.40
2023-02-11T15:04:05.441Z,2.70
2023-02-11T15:06:41.586Z,2.73
2023-02-11T15:09:16.112Z,2.90
2023-02-11T15:11:43.831Z,2.30
2023-02-11T15:14:23.941Z,9.77
2023-02-11T15:16:51.044Z,6.03
2023-02-11T15:19:27.554Z,4.70
2023-02-11T15:21:54.587Z,4.37
2023-02-11T15:24:24.476Z,3.63
2023-02-11T15:27:04.938Z,3.67
2023-02-11T15:29:41.418Z,3.47
2023-02-11T15:32:18.996Z,2.97
2023-02-11T15:34:45.966Z,2.90
2023-02-11T15:37:23.538Z,2.77
2023-02-11T15:39:51.811Z,3.07
2023-02-11T15:42:28.931Z,3.80
2023-02-11T15:45:32.220Z,3.33
2023-02-11T15:48:07.858Z,3.57
2023-02-11T15:50:37.609Z,6.87
2023-02-11T15:53:20.680Z,6.83
2023-02-11T15:55:48.983Z,5.70
2023-02-11T15:58:15.635Z,6.27
2023-02-11T16:00:49.763Z,5.27
2023-02-11T16:03:24.172Z,4.70
2023-02-11T16:05:51.131Z,4.40
2023-02-11T16:08:25.936Z,4.30
2023-02-11T16:11:03.313Z,4.03
2023-02-11T16:13:33.464Z,4.03
2023-02-11T16:16:02.448Z,3.70
2023-02-11T16:18:38.640Z,3.20
2023-02-11T16:21:07.816Z,3.40
2023-02-11T16:23:36.115Z,3.60
2023-02-11T16:26:08.342Z,3.77
2023-02-11T16:28:36.714Z,3.90
2023-02-11T16:31:03.525Z,3.40
2023-02-11T16:33:30.277Z,3.47
2023-02-11T16:35:57.711Z,3.30
2023-02-11T16:38:24.324Z,4.10
2023-02-11T16:40:51.467Z,3.80
2023-02-11T16:43:19.627Z,3.67
2023-02-11T16:45:46.695Z,4.33
2023-02-11T16:48:17.092Z,4.63
2023-02-11T16:50:45.185Z,4.30
2023-02-11T16:53:12.039Z,4.30
2023-02-11T16:55:38.893Z,4.83
2023-02-11T16:58:06.374Z,4.67
2023-02-11T17:00:33.015Z,4.07
2023-02-11T17:02:59.658Z,4.60
2023-02-11T17:05:26.875Z,3.90
2023-02-11T17:07:53.468Z,4.30
2023-02-11T17:10:21.711Z,4.97
2023-02-11T17:12:48.868Z,4.43
2023-02-11T17:15:15.741Z,4.80
2023-02-11T17:17:42.428Z,4.47
2023-02-11T17:20:14.402Z,4.80
2023-02-11T17:22:41.153Z,5.53
2023-02-11T17:25:07.976Z,4.93
2023-02-11T17:27:34.668Z,5.20
2023-02-11T17:30:01.324Z,5.20
2023-02-11T17:32:27.980Z,4.93
2023-02-11T17:34:54.696Z,5.30
2023-02-11T17:37:21.299Z,6.60
2023-02-11T17:39:48.597Z,6.10
2023-02-11T17:42:15.240Z,5.43
2023-02-11T17:44:43.035Z,5.67
2023-02-11T17:47:09.646Z,5.67
2023-02-11T17:49:36.259Z,5.80
2023-02-11T17:52:02.876Z,5.57
2023-02-11T17:54:29.560Z,5.00
2023-02-11T17:56:58.293Z,6.37
2023-02-11T17:59:25.865Z,5.40
2023-02-11T18:01:52.475Z,5.33
2023-02-11T18:04:19.377Z,5.70
2023-02-11T18:06:46.081Z,5.87
2023-02-11T18:09:12.752Z,6.07
2023-02-11T18:11:39.524Z,5.70
2023-02-11T18:14:07.728Z,5.60
2023-02-11T18:16:36.341Z,6.70
2023-02-11T18:19:03.169Z,6.40
2023-02-11T18:21:29.815Z,6.30
2023-02-11T18:23:56.997Z,6.57
2023-02-11T18:26:26.251Z,6.90
2023-02-11T18:28:52.878Z,7.27
2023-02-11T18:31:19.668Z,6.40
2023-02-11T18:33:47.751Z,5.83
2023-02-11T18:36:14.698Z,5.90
2023-02-11T18:38:41.713Z,5.80
2023-02-11T18:41:08.457Z,5.60
2023-02-11T18:43:35.195Z,5.77
2023-02-11T18:46:02.547Z,5.73
2023-02-11T18:48:29.243Z,5.50
2023-02-11T18:50:55.952Z,5.60
2023-02-11T18:53:22.679Z,4.90
2023-02-11T18:55:49.426Z,5.50
2023-02-11T18:58:16.164Z,5.60
2023-02-11T19:00:45.645Z,5.77
2023-02-11T19:03:12.252Z,6.17
2023-02-11T19:05:48.824Z,6.03
2023-02-11T19:08:15.720Z,5.97
2023-02-11T19:10:43.727Z,8.00
2023-02-11T19:13:10.432Z,7.10
2023-02-11T19:15:44.070Z,6.87
2023-02-11T19:18:11.163Z,6.63
2023-02-11T19:20:41.694Z,6.10
2023-02-11T19:23:08.341Z,6.73
2023-02-11T19:25:35.054Z,6.40
2023-02-11T19:28:01.838Z,6.50
2023-02-11T19:30:28.443Z,6.57
2023-02-11T19:32:57.093Z,6.77
2023-02-11T19:35:24.411Z,6.77
2023-02-11T19:37:51.019Z,6.50
2023-02-11T19:40:17.702Z,5.70
2023-02-11T19:42:44.794Z,6.47
2023-02-11T19:45:11.407Z,6.30
2023-02-11T19:47:38.095Z,5.80
2023-02-11T19:50:05.647Z,6.53
2023-02-11T19:52:32.288Z,7.17
2023-02-11T19:54:59.682Z,7.37
2023-02-11T19:57:26.389Z,6.63
2023-02-11T19:59:54.768Z,6.97
2023-02-11T20:02:21.430Z,7.13
2023-02-11T20:04:48.111Z,9.13
2023-02-11T20:07:14.722Z,9.37
2023-02-11T20:09:42.439Z,9.07
2023-02-11T20:12:09.607Z,7.07
2023-02-11T20:14:36.288Z,8.43
2023-02-11T20:17:02.898Z,9.33
2023-02-11T20:19:30.560Z,9.63
2023-02-11T20:21:57.184Z,9.03
2023-02-11T20:24:24.177Z,9.20
2023-02-11T20:26:55.113Z,9.17
2023-02-11T20:29:21.867Z,8.83
2023-02-11T20:31:49.344Z,9.67
2023-02-11T20:34:17.528Z,10.33
2023-02-11T20:36:51.230Z,9.00
2023-02-11T20:39:18.464Z,8.83
2023-02-11T20:41:45.963Z,9.33
2023-02-11T20:44:12.747Z,9.80
2023-02-11T20:46:41.290Z,10.77
2023-02-11T20:49:09.734Z,9.43
2023-02-11T20:51:37.232Z,9.83
2023-02-11T20:54:05.922Z,10.10
2023-02-11T20:56:34.431Z,9.60
2023-02-11T20:59:02.108Z,9.47
2023-02-11T21:01:40.620Z,8.77
2023-02-11T21:04:10.617Z,9.33
2023-02-11T21:06:42.432Z,8.30
2023-02-11T21:09:09.593Z,8.73
2023-02-11T21:11:36.212Z,10.67
2023-02-11T21:14:02.868Z,10.33
2023-02-11T21:16:30.353Z,9.73
2023-02-11T21:18:56.989Z,9.67
2023-02-11T21:21:23.811Z,10.37
2023-02-11T21:23:50.414Z,11.33
2023-02-11T21:26:17.226Z,9.50
2023-02-11T21:28:44.891Z,10.20
2023-02-11T21:31:25.120Z,9.60
2023-02-11T21:33:53.042Z,9.97
2023-02-11T21:36:20.250Z,8.67
2023-02-11T21:38:46.841Z,10.47
2023-02-11T21:41:13.438Z,10.60
2023-02-11T21:43:40.032Z,9.23
2023-02-11T21:46:11.283Z,8.30
2023-02-11T21:48:38.066Z,8.60
2023-02-11T21:51:06.298Z,9.43
2023-02-11T21:53:33.000Z,9.07
2023-02-11T21:56:18.661Z,9.30
2023-02-11T21:58:45.645Z,8.47
2023-02-11T22:01:19.938Z,8.10
2023-02-11T22:03:46.559Z,9.40
2023-02-11T22:06:15.492Z,8.67
2023-02-11T22:08:42.142Z,9.80
2023-02-11T22:11:10.293Z,10.27
2023-02-11T22:13:36.940Z,9.80
2023-02-11T22:16:06.535Z,11.70
2023-02-11T22:18:33.233Z,10.57
2023-02-11T22:21:00.483Z,10.20
2023-02-11T22:23:27.631Z,9.57
2023-02-11T22:25:54.630Z,8.23
2023-02-11T22:28:21.691Z,8.77
2023-02-11T22:30:54.166Z,8.37
2023-02-11T22:33:21.043Z,8.93
2023-02-11T22:35:47.656Z,10.83
2023-02-11T22:38:14.254Z,10.57
2023-02-11T22:40:42.864Z,10.53
2023-02-11T22:43:09.931Z,10.70
2023-02-11T22:45:36.567Z,10.53
2023-02-11T22:48:03.544Z,12.00
2023-02-11T22:50:30.429Z,12.63
2023-02-11T22:52:57.034Z,11.87
2023-02-11T22:55:23.624Z,10.40
2023-02-11T22:57:50.253Z,8.83
2023-02-11T23:00:17.506Z,8.50
2023-02-11T23:02:44.166Z,9.03
2023-02-11T23:05:10.826Z,11.47
2023-02-11T23:07:37.424Z,9.20
2023-02-11T23:10:04.391Z,10.80
2023-02-11T23:12:31.000Z,11.97
2023-02-11T23:14:57.580Z,10.17
2023-02-11T23:17:24.567Z,10.60
2023-02-11T23:19:51.338Z,10.33
2023-02-11T23:22:17.937Z,9.23
2023-02-11T23:24:44.525Z,10.07
2023-02-11T23:27:11.127Z,11.77
2023-02-11T23:29:37.750Z,11.67
2023-02-11T23:32:04.612Z,10.17
2023-02-11T23:34:31.348Z,10.40
2023-02-11T23:36:59.171Z,11.23
2023-02-11T23:39:25.779Z,10.97
2023-02-11T23:41:58.726Z,11.87
2023-02-11T23:44:26.628Z,10.07
2023-02-11T23:46:53.227Z,11.30
2023-02-11T23:49:19.853Z,9.80
2023-02-11T23:51:46.472Z,8.23
2023-02-11T23:54:13.389Z,8.33
2023-02-11T23:56:40.095Z,7.47
2023-02-11T23:59:06.677Z,6.87
